createdAt,value
2022-11-16T00:01:58.181Z,5.03
2022-11-16T00:04:26.689Z,5.02
2022-11-16T00:06:55.313Z,5.00
2022-11-16T00:09:23.801Z,4.96
2022-11-16T00:12:04.989Z,4.91
2022-11-16T00:14:34.963Z,4.86
2022-11-16T00:17:04.580Z,4.85
2022-11-16T00:19:33.026Z,4.80
2022-11-16T00:22:01.597Z,4.81
2022-11-16T00:27:26.801Z,4.78
2022-11-16T00:29:59.797Z,4.71
2022-11-16T00:32:33.773Z,4.71
2022-11-16T00:35:02.961Z,4.69
2022-11-16T00:37:32.541Z,4.63
2022-11-16T00:40:02.166Z,4.59
2022-11-16T00:42:34.396Z,4.59
2022-11-16T00:45:05.066Z,4.60
2022-11-16T00:47:33.468Z,4.60
2022-11-16T00:50:02.082Z,4.66
2022-11-16T00:52:31.947Z,4.68
2022-11-16T00:55:00.539Z,4.66
2022-11-16T00:57:29.200Z,4.68
2022-11-16T01:00:00.048Z,4.71
2022-11-16T01:02:30.606Z,4.74
2022-11-16T01:05:13.052Z,4.77
2022-11-16T01:07:49.839Z,4.79
2022-11-16T01:10:24.516Z,4.84
2022-11-16T01:12:53.486Z,4.88
2022-11-16T01:15:23.501Z,4.87
2022-11-16T01:17:52.619Z,4.88
2022-11-16T01:20:22.369Z,4.91
2022-11-16T01:22:50.983Z,4.94
2022-11-16T01:25:19.899Z,4.95
2022-11-16T01:27:48.362Z,4.92
2022-11-16T01:30:24.211Z,4.89
2022-11-16T01:33:01.790Z,4.84
2022-11-16T01:35:30.645Z,4.78
2022-11-16T01:37:59.957Z,4.73
2022-11-16T01:40:41.909Z,4.68
2022-11-16T01:43:16.330Z,4.70
2022-11-16T01:46:10.352Z,4.74
2022-11-16T01:48:39.377Z,4.77
2022-11-16T01:51:11.863Z,4.75
2022-11-16T01:53:41.183Z,4.76
2022-11-16T01:56:09.724Z,4.77
2022-11-16T01:58:47.920Z,4.79
2022-11-16T02:01:24.025Z,4.80
2022-11-16T02:03:54.585Z,4.81
2022-11-16T02:06:38.651Z,4.81
2022-11-16T02:09:36.961Z,4.82
2022-11-16T02:12:15.833Z,4.80
2022-11-16T02:14:44.471Z,4.77
2022-11-16T02:17:32.875Z,4.79
2022-11-16T02:20:25.399Z,4.83
2022-11-16T02:26:01.433Z,4.90
2022-11-16T02:28:55.086Z,4.92
2022-11-16T02:31:29.427Z,4.92
2022-11-16T02:33:59.567Z,4.93
2022-11-16T02:36:39.083Z,4.93
2022-11-16T02:42:17.715Z,4.95
2022-11-16T02:44:48.043Z,4.95
2022-11-16T02:47:43.033Z,4.95
2022-11-16T02:50:23.785Z,4.97
2022-11-16T02:53:11.462Z,4.96
2022-11-16T02:55:57.848Z,4.95
2022-11-16T02:58:29.211Z,4.93
2022-11-16T03:01:11.808Z,4.91
2022-11-16T03:03:51.150Z,4.86
2022-11-16T03:06:26.272Z,4.82
2022-11-16T03:09:01.455Z,4.78
2022-11-16T03:11:59.973Z,4.74
2022-11-16T03:14:44.814Z,4.72
2022-11-16T03:20:32.183Z,4.60
2022-11-16T03:23:04.607Z,4.58
2022-11-16T03:26:00.876Z,4.57
2022-11-16T03:29:18.461Z,4.60
2022-11-16T03:32:03.633Z,4.60
2022-11-16T03:34:39.322Z,4.60
2022-11-16T03:37:08.054Z,4.60
2022-11-16T03:39:39.103Z,4.57
2022-11-16T03:42:09.630Z,4.54
2022-11-16T03:44:38.992Z,4.52
2022-11-16T03:47:18.077Z,4.51
2022-11-16T03:49:55.772Z,4.39
2022-11-16T03:52:25.034Z,4.28
2022-11-16T03:55:03.009Z,4.31
2022-11-16T03:57:45.420Z,4.32
2022-11-16T04:00:18.393Z,4.36
2022-11-16T04:02:47.026Z,4.35
2022-11-16T04:05:43.695Z,4.29
2022-11-16T04:08:45.171Z,4.24
2022-11-16T04:11:44.593Z,4.21
2022-11-16T04:14:41.555Z,4.19
2022-11-16T04:17:44.659Z,4.22
2022-11-16T04:20:34.988Z,4.22
2022-11-16T04:23:34.804Z,4.12
2022-11-16T04:26:06.667Z,3.97
2022-11-16T04:28:37.070Z,4.02
2022-11-16T04:31:28.173Z,4.07
2022-11-16T04:37:38.391Z,4.19
2022-11-16T04:40:17.990Z,4.23
2022-11-16T04:43:04.318Z,4.26
2022-11-16T04:45:56.344Z,4.29
2022-11-16T04:48:27.469Z,4.28
2022-11-16T04:50:56.292Z,4.27
2022-11-16T04:53:27.315Z,4.09
2022-11-16T04:56:06.861Z,4.08
2022-11-16T04:58:35.908Z,4.12
2022-11-16T05:01:05.011Z,4.10
2022-11-16T05:03:34.748Z,4.11
2022-11-16T05:06:06.146Z,4.10
2022-11-16T05:08:45.352Z,4.12
2022-11-16T05:11:13.692Z,4.15
2022-11-16T05:13:42.261Z,4.16
2022-11-16T05:16:11.217Z,4.20
2022-11-16T05:18:41.279Z,4.23
2022-11-16T05:21:10.685Z,4.31
2022-11-16T05:23:57.989Z,4.38
2022-11-16T05:26:29.521Z,4.42
2022-11-16T05:28:57.876Z,4.39
2022-11-16T05:31:26.075Z,4.40
2022-11-16T05:33:54.252Z,4.47
2022-11-16T05:36:25.102Z,4.52
2022-11-16T05:38:56.203Z,4.55
2022-11-16T05:41:26.088Z,4.59
2022-11-16T05:43:55.548Z,4.67
2022-11-16T05:46:24.657Z,4.74
2022-11-16T05:48:54.014Z,4.79
2022-11-16T05:51:22.859Z,4.84
2022-11-16T05:53:51.472Z,4.89
2022-11-16T05:56:22.348Z,4.93
2022-11-16T05:58:51.266Z,4.95
2022-11-16T06:01:19.588Z,4.96
2022-11-16T06:03:50.606Z,4.99
2022-11-16T06:06:20.172Z,5.02
2022-11-16T06:08:51.181Z,5.04
2022-11-16T06:11:23.026Z,5.05
2022-11-16T06:13:51.307Z,5.06
2022-11-16T06:16:28.221Z,5.06
2022-11-16T06:18:57.856Z,5.07
2022-11-16T06:21:37.562Z,5.08
2022-11-16T06:24:12.409Z,5.09
2022-11-16T06:26:43.057Z,5.10
2022-11-16T06:29:11.336Z,5.13
2022-11-16T06:31:39.725Z,5.17
2022-11-16T06:34:08.623Z,5.14
2022-11-16T06:36:47.361Z,5.07
2022-11-16T06:39:23.493Z,5.15
2022-11-16T06:41:55.190Z,5.22
2022-11-16T06:44:26.875Z,5.29
2022-11-16T06:46:58.824Z,5.35
2022-11-16T06:49:27.153Z,5.36
2022-11-16T06:51:56.820Z,5.37
2022-11-16T06:54:25.341Z,5.41
2022-11-16T06:56:53.728Z,5.50
2022-11-16T06:59:22.979Z,5.49
2022-11-16T07:01:51.431Z,5.44
2022-11-16T07:04:20.988Z,5.32
2022-11-16T07:06:53.009Z,5.14
2022-11-16T07:09:21.538Z,5.09
2022-11-16T07:11:50.876Z,5.13
2022-11-16T07:14:30.675Z,5.20
2022-11-16T07:17:06.516Z,5.21
2022-11-16T07:19:39.184Z,5.19
2022-11-16T07:22:09.663Z,5.18
2022-11-16T07:24:46.631Z,5.21
2022-11-16T07:27:17.363Z,5.30
2022-11-16T07:29:46.847Z,5.41
2022-11-16T07:32:45.908Z,5.52
2022-11-16T07:35:31.247Z,5.59
2022-11-16T07:37:59.580Z,5.63
2022-11-16T07:40:30.959Z,5.69
2022-11-16T07:42:59.511Z,5.73
2022-11-16T07:45:33.864Z,5.82
2022-11-16T07:48:06.881Z,5.96
2022-11-16T07:51:05.075Z,6.09
2022-11-16T07:53:34.570Z,6.14
2022-11-16T07:56:03.960Z,6.15
2022-11-16T07:58:36.090Z,6.16
2022-11-16T08:01:09.631Z,6.19
2022-11-16T08:03:38.737Z,6.20
2022-11-16T08:06:08.562Z,6.24
2022-11-16T08:08:37.129Z,6.30
2022-11-16T08:11:07.055Z,6.37
2022-11-16T08:13:37.115Z,6.40
2022-11-16T08:16:05.773Z,6.45
2022-11-16T08:18:34.528Z,6.54
2022-11-16T08:21:04.209Z,6.64
2022-11-16T08:23:32.816Z,6.72
2022-11-16T08:26:02.107Z,6.75
2022-11-16T08:28:31.231Z,6.77
2022-11-16T08:31:04.956Z,6.82
2022-11-16T08:33:33.666Z,6.86
2022-11-16T08:36:09.570Z,6.92
2022-11-16T08:38:42.146Z,7.01
2022-11-16T08:41:11.198Z,7.12
2022-11-16T08:43:40.613Z,7.22
2022-11-16T08:46:09.766Z,7.35
2022-11-16T08:48:41.684Z,7.44
2022-11-16T08:51:18.478Z,7.55
2022-11-16T08:53:55.653Z,7.67
2022-11-16T08:56:27.378Z,7.78
2022-11-16T08:58:58.989Z,7.91
2022-11-16T09:01:29.174Z,8.02
2022-11-16T09:03:57.569Z,8.09
2022-11-16T09:06:27.047Z,8.13
2022-11-16T09:08:56.350Z,8.15
2022-11-16T09:11:25.365Z,8.18
2022-11-16T09:13:55.154Z,8.23
2022-11-16T09:16:23.906Z,8.35
2022-11-16T09:18:53.582Z,8.49
2022-11-16T09:21:23.291Z,8.65
2022-11-16T09:23:51.529Z,8.69
2022-11-16T09:26:21.536Z,8.66
2022-11-16T09:29:01.014Z,8.73
2022-11-16T09:31:31.839Z,8.77
2022-11-16T09:34:00.088Z,8.74
2022-11-16T09:36:28.980Z,8.69
2022-11-16T09:42:04.754Z,8.62
2022-11-16T09:44:51.658Z,8.63
2022-11-16T09:47:22.021Z,8.69
2022-11-16T09:49:59.814Z,8.74
2022-11-16T09:52:34.401Z,8.81
2022-11-16T09:57:52.472Z,8.95
2022-11-16T10:00:23.844Z,9.01
2022-11-16T10:03:04.501Z,9.04
2022-11-16T10:05:32.844Z,9.04
2022-11-16T10:08:14.729Z,9.06
2022-11-16T10:10:49.126Z,9.08
2022-11-16T10:13:35.847Z,9.14
2022-11-16T10:16:04.232Z,9.19
2022-11-16T10:21:55.614Z,9.32
2022-11-16T10:24:23.747Z,9.47
2022-11-16T10:26:55.485Z,9.63
2022-11-16T10:29:39.956Z,9.79
2022-11-16T10:32:10.813Z,9.89
2022-11-16T10:34:59.138Z,9.96
2022-11-16T10:37:36.756Z,10.01
2022-11-16T10:40:31.340Z,10.03
2022-11-16T10:42:59.560Z,10.04
2022-11-16T10:45:39.909Z,10.00
2022-11-16T10:48:14.863Z,10.04
2022-11-16T10:50:47.891Z,10.08
2022-11-16T10:53:26.114Z,10.18
2022-11-16T10:56:03.061Z,10.29
2022-11-16T10:58:48.731Z,10.41
2022-11-16T11:01:27.511Z,10.53
2022-11-16T11:03:55.897Z,10.57
2022-11-16T11:06:25.767Z,10.56
2022-11-16T11:08:53.996Z,10.55
2022-11-16T11:11:41.942Z,10.57
2022-11-16T11:14:10.070Z,10.58
2022-11-16T11:16:38.567Z,10.64
2022-11-16T12:41:01.164Z,9.85
2022-11-16T12:43:27.933Z,9.87
2022-11-16T12:46:07.388Z,9.86
2022-11-16T12:48:40.605Z,9.86
2022-11-16T12:51:32.168Z,9.88
2022-11-16T12:54:02.036Z,9.89
2022-11-16T12:56:34.939Z,9.95
2022-11-16T12:59:14.221Z,10.06
2022-11-16T13:01:47.593Z,10.12
2022-11-16T13:04:17.479Z,10.14
2022-11-16T13:07:10.502Z,10.15
2022-11-16T13:09:49.072Z,10.16
2022-11-16T13:12:17.650Z,10.16
2022-11-16T13:14:48.321Z,10.15
2022-11-16T13:17:23.656Z,10.09
2022-11-16T13:20:14.568Z,10.03
2022-11-16T13:22:46.438Z,10.00
2022-11-16T13:25:45.728Z,9.99
2022-11-16T13:28:33.722Z,9.97
2022-11-16T13:31:19.822Z,9.92
2022-11-16T13:33:51.284Z,9.88
2022-11-16T13:36:36.717Z,9.84
2022-11-16T13:39:04.546Z,9.81
2022-11-16T13:41:35.794Z,9.76
2022-11-16T13:44:03.891Z,9.72
2022-11-16T13:46:56.282Z,9.69
2022-11-16T13:49:30.294Z,9.67
2022-11-16T13:52:21.455Z,9.66
2022-11-16T13:54:51.503Z,9.63
2022-11-16T13:57:32.247Z,9.59
2022-11-16T14:00:02.245Z,9.55
2022-11-16T14:02:33.119Z,9.51
2022-11-16T14:05:12.232Z,9.47
2022-11-16T14:07:42.579Z,9.45
2022-11-16T14:10:10.602Z,9.40
2022-11-16T14:12:37.576Z,9.34
2022-11-16T14:15:04.481Z,9.31
2022-11-16T14:17:57.785Z,9.28
2022-11-16T14:20:24.642Z,9.22
2022-11-16T14:22:51.522Z,9.17
2022-11-16T14:25:37.250Z,9.14
2022-11-16T14:28:30.264Z,9.08
2022-11-16T14:31:13.156Z,9.01
2022-11-16T14:33:40.091Z,8.93
2022-11-16T14:36:07.852Z,8.89
2022-11-16T14:38:36.355Z,8.86
2022-11-16T14:41:04.888Z,8.83
2022-11-16T14:43:45.607Z,8.83
2022-11-16T14:46:19.810Z,8.82
2022-11-16T14:48:46.913Z,8.82
2022-11-16T14:51:15.985Z,8.79
2022-11-16T14:53:48.234Z,8.78
2022-11-16T14:56:16.004Z,8.78
2022-11-16T14:58:53.279Z,8.73
2022-11-16T15:01:22.169Z,8.66
2022-11-16T15:04:23.620Z,8.60
2022-11-16T15:06:57.521Z,8.58
2022-11-16T15:09:24.330Z,8.58
2022-11-16T15:12:10.061Z,8.54
2022-11-16T15:14:40.046Z,8.51
2022-11-16T15:17:08.000Z,8.52
2022-11-16T15:19:35.061Z,8.51
2022-11-16T15:22:02.766Z,8.48
2022-11-16T15:24:32.217Z,8.46
2022-11-16T15:27:07.961Z,8.42
2022-11-16T15:29:34.996Z,8.42
2022-11-16T15:32:01.713Z,8.40
2022-11-16T15:34:28.590Z,8.38
2022-11-16T15:36:55.361Z,8.36
2022-11-16T15:39:23.219Z,8.34
2022-11-16T15:41:50.972Z,8.30
2022-11-16T15:44:20.130Z,8.28
2022-11-16T15:46:48.659Z,8.25
2022-11-16T15:49:25.917Z,8.23
2022-11-16T15:51:52.800Z,8.19
2022-11-16T15:54:24.463Z,8.17
2022-11-16T15:56:53.234Z,8.17
2022-11-16T15:59:24.511Z,8.16
2022-11-16T16:01:51.765Z,8.15
2022-11-16T16:04:18.704Z,8.16
2022-11-16T16:06:48.836Z,8.16
2022-11-16T16:09:36.400Z,8.14
2022-11-16T16:12:17.499Z,8.13
2022-11-16T16:14:44.815Z,8.11
2022-11-16T16:17:20.662Z,8.07
2022-11-16T16:19:53.675Z,8.02
2022-11-16T16:22:25.773Z,8.01
2022-11-16T16:24:53.151Z,7.99
2022-11-16T16:27:21.434Z,7.97
2022-11-16T16:29:49.585Z,7.94
2022-11-16T16:32:29.818Z,7.92
2022-11-16T16:34:57.763Z,7.89
2022-11-16T16:37:25.509Z,7.86
2022-11-16T16:39:52.264Z,7.81
2022-11-16T16:42:19.789Z,7.78
2022-11-16T16:44:47.522Z,7.73
2022-11-16T16:47:14.883Z,7.71
2022-11-16T16:49:41.637Z,7.68
2022-11-16T16:52:11.147Z,7.65
2022-11-16T16:54:38.061Z,7.62
2022-11-16T16:57:04.934Z,7.60
2022-11-16T16:59:31.977Z,7.57
2022-11-16T17:02:03.863Z,7.52
2022-11-16T17:05:35.849Z,7.49
2022-11-16T17:08:02.598Z,7.49
2022-11-16T17:10:29.468Z,7.51
2022-11-16T17:12:56.716Z,7.54
2022-11-16T17:15:24.123Z,7.56
2022-11-16T17:17:50.940Z,7.57
2022-11-16T17:20:17.765Z,7.60
2022-11-16T17:22:45.467Z,7.62
2022-11-16T17:25:12.682Z,7.66
2022-11-16T17:27:39.506Z,7.70
2022-11-16T17:30:06.784Z,7.77
2022-11-16T17:32:33.620Z,7.79
2022-11-16T17:35:00.379Z,7.83
2022-11-16T17:37:27.180Z,7.88
2022-11-16T17:39:53.901Z,7.91
2022-11-16T17:42:20.729Z,7.94
2022-11-16T17:44:47.626Z,7.97
2022-11-16T17:47:14.400Z,8.00
2022-11-16T17:49:41.213Z,7.98
2022-11-16T17:52:07.966Z,7.97
2022-11-16T17:54:34.767Z,7.96
2022-11-16T17:57:01.558Z,7.92
2022-11-16T17:59:30.033Z,7.90
2022-11-16T18:01:57.390Z,7.92
2022-11-16T18:04:24.347Z,7.93
2022-11-16T18:06:51.445Z,7.93
2022-11-16T18:09:18.437Z,7.94
2022-11-16T18:11:45.291Z,7.94
2022-11-16T18:14:12.057Z,7.94
2022-11-16T18:16:41.772Z,7.95
2022-11-16T18:19:09.305Z,7.95
2022-11-16T18:21:39.895Z,7.98
2022-11-16T18:24:06.837Z,8.00
2022-11-16T18:26:33.774Z,8.00
2022-11-16T18:29:00.691Z,7.98
2022-11-16T18:31:29.202Z,7.97
2022-11-16T18:33:56.093Z,7.95
2022-11-16T18:36:22.982Z,7.92
2022-11-16T18:38:49.855Z,7.91
2022-11-16T18:41:16.655Z,7.88
2022-11-16T18:43:54.297Z,7.87
2022-11-16T18:46:22.475Z,7.84
2022-11-16T18:48:49.229Z,7.84
2022-11-16T18:51:21.333Z,7.83
2022-11-16T18:53:48.257Z,7.87
2022-11-16T18:56:15.350Z,7.91
2022-11-16T18:58:50.830Z,7.94
2022-11-16T19:01:19.919Z,7.99
2022-11-16T19:03:46.729Z,8.00
2022-11-16T19:06:18.580Z,7.99
2022-11-16T19:08:51.824Z,7.99
2022-11-16T19:11:22.789Z,8.00
2022-11-16T19:13:51.894Z,8.02
2022-11-16T19:16:18.903Z,8.02
2022-11-16T19:18:46.084Z,8.03
2022-11-16T19:21:14.167Z,8.04
2022-11-16T19:23:42.806Z,8.04
2022-11-16T19:26:24.940Z,8.06
2022-11-16T19:28:57.246Z,8.08
2022-11-16T19:31:35.564Z,8.14
2022-11-16T19:34:04.451Z,8.18
2022-11-16T19:36:32.541Z,8.22
2022-11-16T19:39:01.102Z,8.26
2022-11-16T19:41:28.595Z,8.30
2022-11-16T19:43:59.158Z,8.35
2022-11-16T19:46:27.609Z,8.38
2022-11-16T19:48:55.364Z,8.43
2022-11-16T19:51:23.780Z,8.47
2022-11-16T19:53:50.874Z,8.51
2022-11-16T19:56:19.593Z,8.53
2022-11-16T19:58:47.126Z,8.55
2022-11-16T20:01:16.532Z,8.58
2022-11-16T20:03:44.322Z,8.60
2022-11-16T20:06:13.198Z,8.62
2022-11-16T20:08:40.940Z,8.62
2022-11-16T20:11:15.597Z,8.64
2022-11-16T20:13:43.278Z,8.66
2022-11-16T20:16:11.293Z,8.67
2022-11-16T20:18:39.313Z,8.67
2022-11-16T20:21:07.858Z,8.69
2022-11-16T20:23:35.274Z,8.71
2022-11-16T20:26:03.317Z,8.72
2022-11-16T20:28:33.105Z,8.72
2022-11-16T20:31:00.708Z,8.71
2022-11-16T20:33:27.480Z,8.67
2022-11-16T20:35:58.994Z,8.63
2022-11-16T20:38:25.835Z,8.59
2022-11-16T20:40:52.629Z,8.54
2022-11-16T20:43:19.545Z,8.51
2022-11-16T20:45:50.968Z,8.49
2022-11-16T20:48:17.725Z,8.44
2022-11-16T20:50:45.112Z,8.41
2022-11-16T20:53:12.027Z,8.38
2022-11-16T20:55:38.933Z,8.36
2022-11-16T20:58:05.790Z,8.35
2022-11-16T21:00:32.710Z,8.34
2022-11-16T21:02:59.692Z,8.34
2022-11-16T21:05:26.623Z,8.32
2022-11-16T21:07:53.418Z,8.32
2022-11-16T21:10:20.373Z,8.32
2022-11-16T21:13:05.974Z,8.33
2022-11-16T21:15:33.030Z,8.33
2022-11-16T21:17:59.802Z,8.33
2022-11-16T21:20:28.083Z,8.32
2022-11-16T21:22:55.572Z,8.31
2022-11-16T21:25:22.439Z,8.30
2022-11-16T21:27:49.308Z,8.29
2022-11-16T21:30:16.334Z,8.26
2022-11-16T21:32:43.339Z,8.24
2022-11-16T21:35:10.127Z,8.24
2022-11-16T21:37:36.924Z,8.24
2022-11-16T21:40:03.740Z,8.23
2022-11-16T21:42:30.542Z,8.21
2022-11-16T21:44:57.300Z,8.22
2022-11-16T21:47:24.153Z,8.22
2022-11-16T21:50:16.978Z,8.22
2022-11-16T21:52:37.824Z,8.24
2022-11-16T21:55:04.855Z,8.26
2022-11-16T21:57:31.730Z,8.28
2022-11-16T22:00:00.432Z,8.29
2022-11-16T22:02:27.414Z,8.28
2022-11-16T22:05:12.909Z,8.27
2022-11-16T22:07:40.623Z,8.28
2022-11-16T22:10:11.454Z,8.28
2022-11-16T22:12:38.705Z,8.27
2022-11-16T22:15:06.251Z,8.27
2022-11-16T22:17:33.034Z,8.25
2022-11-16T22:19:59.703Z,8.27
2022-11-16T22:22:26.501Z,8.26
2022-11-16T22:24:53.357Z,8.26
2022-11-16T22:27:20.311Z,8.27
2022-11-16T22:29:47.150Z,8.24
2022-11-16T22:32:13.926Z,8.24
2022-11-16T22:34:45.194Z,8.27
2022-11-16T22:37:11.988Z,8.29
2022-11-16T22:39:38.799Z,8.32
2022-11-16T22:42:05.795Z,8.36
2022-11-16T22:44:32.536Z,8.39
2022-11-16T22:47:01.082Z,8.42
2022-11-16T22:49:27.946Z,8.47
2022-11-16T22:51:54.907Z,8.53
2022-11-16T22:54:27.353Z,8.54
2022-11-16T22:56:55.450Z,8.58
2022-11-16T22:59:22.379Z,8.64
2022-11-16T23:01:49.148Z,8.69
2022-11-16T23:04:15.883Z,8.74
2022-11-16T23:06:42.550Z,8.77
2022-11-16T23:09:09.307Z,8.79
2022-11-16T23:11:54.746Z,8.79
2022-11-16T23:14:40.283Z,8.79
2022-11-16T23:17:07.144Z,8.77
2022-11-16T23:19:52.701Z,8.75
2022-11-16T23:22:39.413Z,8.71
2022-11-16T23:25:25.862Z,8.68
2022-11-16T23:27:56.261Z,8.66
2022-11-16T23:30:23.722Z,8.66
2022-11-16T23:32:50.955Z,8.66
2022-11-16T23:35:17.892Z,8.65
2022-11-16T23:37:51.051Z,8.66
2022-11-16T23:40:18.073Z,8.65
2022-11-16T23:43:03.758Z,8.67
2022-11-16T23:45:30.672Z,8.66
2022-11-16T23:47:57.379Z,8.64
2022-11-16T23:50:24.114Z,8.61
2022-11-16T23:52:50.883Z,8.58
2022-11-16T23:55:17.821Z,8.56
2022-11-16T23:57:44.760Z,8.57
